sensor_id;sensor_type;location;lat;lon;timestamp;pressure;altitude;pressure_sealevel;temperature;humidity
64933;BME280;51446;53.850;10.662;2023-04-27T00:01:47;101778.22;;;3.19;100.00
64933;BME280;51446;53.850;10.662;2023-04-27T00:04:12;101777.28;;;3.32;100.00
64933;BME280;51446;53.850;10.662;2023-04-27T00:06:38;101780.84;;;3.34;100.00
64933;BME280;51446;53.850;10.662;2023-04-27T00:09:04;101774.22;;;3.24;100.00
64933;BME280;51446;53.850;10.662;2023-04-27T00:11:29;101772.59;;;3.26;100.00
64933;BME280;51446;53.850;10.662;2023-04-27T00:13:55;101774.41;;;3.27;100.00
64933;BME280;51446;53.850;10.662;2023-04-27T00:16:20;101776.06;;;3.27;100.00
64933;BME280;51446;53.850;10.662;2023-04-27T00:18:45;101771.81;;;3.27;100.00
64933;BME280;51446;53.850;10.662;2023-04-27T00:21:11;101777.38;;;3.34;100.00
64933;BME280;51446;53.850;10.662;2023-04-27T00:23:36;101776.31;;;3.45;100.00
64933;BME280;51446;53.850;10.662;2023-04-27T00:26:01;101772.53;;;3.40;100.00
64933;BME280;51446;53.850;10.662;2023-04-27T00:28:27;101765.28;;;3.34;100.00
64933;BME280;51446;53.850;10.662;2023-04-27T00:30:52;101766.72;;;3.29;100.00
64933;BME280;51446;53.850;10.662;2023-04-27T00:33:19;101772.69;;;3.28;100.00
64933;BME280;51446;53.850;10.662;2023-04-27T00:35:44;101766.63;;;3.27;100.00
64933;BME280;51446;53.850;10.662;2023-04-27T00:38:09;101762.69;;;3.34;100.00
64933;BME280;51446;53.850;10.662;2023-04-27T00:40:36;101764.81;;;3.26;100.00
64933;BME280;51446;53.850;10.662;2023-04-27T00:43:01;101757.06;;;3.26;100.00
64933;BME280;51446;53.850;10.662;2023-04-27T00:45:26;101756.97;;;3.25;100.00
64933;BME280;51446;53.850;10.662;2023-04-27T00:47:51;101758.09;;;3.15;100.00
64933;BME280;51446;53.850;10.662;2023-04-27T00:50:21;101763.19;;;3.13;100.00
64933;BME280;51446;53.850;10.662;2023-04-27T00:52:50;101775.28;;;3.00;100.00
64933;BME280;51446;53.850;10.662;2023-04-27T00:55:15;101770.28;;;3.03;100.00
64933;BME280;51446;53.850;10.662;2023-04-27T00:57:40;101766.41;;;2.96;100.00
64933;BME280;51446;53.850;10.662;2023-04-27T01:00:06;101768.63;;;2.90;100.00
64933;BME280;51446;53.850;10.662;2023-04-27T01:02:31;101775.50;;;2.89;100.00
64933;BME280;51446;53.850;10.662;2023-04-27T01:04:57;101762.06;;;2.82;100.00
64933;BME280;51446;53.850;10.662;2023-04-27T01:07:25;101775.91;;;2.82;100.00
64933;BME280;51446;53.850;10.662;2023-04-27T01:09:50;101770.81;;;2.84;100.00
64933;BME280;51446;53.850;10.662;2023-04-27T01:12:16;101776.13;;;2.72;100.00
64933;BME280;51446;53.850;10.662;2023-04-27T01:14:41;101777.91;;;2.73;100.00
64933;BME280;51446;53.850;10.662;2023-04-27T01:17:06;101779.59;;;2.59;100.00
64933;BME280;51446;53.850;10.662;2023-04-27T01:19:32;101776.25;;;2.60;100.00
64933;BME280;51446;53.850;10.662;2023-04-27T01:21:57;101781.41;;;2.60;100.00
64933;BME280;51446;53.850;10.662;2023-04-27T01:24:22;101780.22;;;2.41;100.00
64933;BME280;51446;53.850;10.662;2023-04-27T01:26:47;101784.22;;;2.36;100.00
64933;BME280;51446;53.850;10.662;2023-04-27T01:29:16;101794.06;;;2.29;100.00
64933;BME280;51446;53.850;10.662;2023-04-27T01:31:41;101790.69;;;2.30;100.00
64933;BME280;51446;53.850;10.662;2023-04-27T01:34:06;101794.16;;;2.30;100.00
64933;BME280;51446;53.850;10.662;2023-04-27T01:36:31;101790.28;;;2.37;100.00
64933;BME280;51446;53.850;10.662;2023-04-27T01:42:18;101800.44;;;2.34;100.00
64933;BME280;51446;53.850;10.662;2023-04-27T01:44:44;101801.13;;;2.31;100.00
64933;BME280;51446;53.850;10.662;2023-04-27T01:47:09;101804.41;;;2.29;100.00
64933;BME280;51446;53.850;10.662;2023-04-27T01:49:34;101802.41;;;2.24;100.00
64933;BME280;51446;53.850;10.662;2023-04-27T01:52:00;101809.38;;;2.25;100.00
64933;BME280;51446;53.850;10.662;2023-04-27T01:54:25;101805.47;;;2.19;100.00
64933;BME280;51446;53.850;10.662;2023-04-27T01:56:51;101812.25;;;2.17;100.00
64933;BME280;51446;53.850;10.662;2023-04-27T01:59:16;101801.50;;;2.11;100.00
64933;BME280;51446;53.850;10.662;2023-04-27T02:01:41;101816.31;;;2.13;100.00
64933;BME280;51446;53.850;10.662;2023-04-27T02:04:06;101811.97;;;2.12;100.00
64933;BME280;51446;53.850;10.662;2023-04-27T02:06:32;101811.41;;;2.04;100.00
64933;BME280;51446;53.850;10.662;2023-04-27T02:08:57;101813.97;;;2.30;100.00
64933;BME280;51446;53.850;10.662;2023-04-27T02:11:22;101814.16;;;2.19;100.00
64933;BME280;51446;53.850;10.662;2023-04-27T02:13:47;101818.91;;;2.13;100.00
64933;BME280;51446;53.850;10.662;2023-04-27T02:16:13;101817.13;;;2.12;100.00
64933;BME280;51446;53.850;10.662;2023-04-27T02:18:38;101821.66;;;2.03;100.00
64933;BME280;51446;53.850;10.662;2023-04-27T02:21:09;101832.34;;;2.07;100.00
64933;BME280;51446;53.850;10.662;2023-04-27T02:23:35;101825.47;;;1.95;100.00
64933;BME280;51446;53.850;10.662;2023-04-27T02:26:01;101835.09;;;1.97;100.00
64933;BME280;51446;53.850;10.662;2023-04-27T02:28:26;101836.50;;;1.92;100.00
64933;BME280;51446;53.850;10.662;2023-04-27T02:30:51;101832.25;;;1.81;100.00
64933;BME280;51446;53.850;10.662;2023-04-27T02:33:17;101839.06;;;1.67;100.00
64933;BME280;51446;53.850;10.662;2023-04-27T02:35:42;101844.81;;;1.88;100.00
64933;BME280;51446;53.850;10.662;2023-04-27T02:38:07;101837.78;;;1.99;100.00
64933;BME280;51446;53.850;10.662;2023-04-27T02:40:32;101839.56;;;1.86;100.00
64933;BME280;51446;53.850;10.662;2023-04-27T02:42:58;101839.56;;;2.00;100.00
64933;BME280;51446;53.850;10.662;2023-04-27T02:45:23;101839.38;;;1.97;100.00
64933;BME280;51446;53.850;10.662;2023-04-27T02:47:48;101825.66;;;1.98;100.00
64933;BME280;51446;53.850;10.662;2023-04-27T02:50:14;101833.31;;;1.96;100.00
64933;BME280;51446;53.850;10.662;2023-04-27T02:52:40;101827.81;;;1.91;100.00
64933;BME280;51446;53.850;10.662;2023-04-27T02:55:05;101831.75;;;2.12;100.00
64933;BME280;51446;53.850;10.662;2023-04-27T02:57:31;101830.19;;;1.88;100.00
64933;BME280;51446;53.850;10.662;2023-04-27T02:59:56;101827.72;;;1.90;100.00
64933;BME280;51446;53.850;10.662;2023-04-27T03:02:21;101830.19;;;1.88;100.00
64933;BME280;51446;53.850;10.662;2023-04-27T03:04:51;101822.31;;;1.87;100.00
64933;BME280;51446;53.850;10.662;2023-04-27T03:07:17;101832.13;;;2.04;100.00
64933;BME280;51446;53.850;10.662;2023-04-27T03:09:42;101833.97;;;1.80;100.00
64933;BME280;51446;53.850;10.662;2023-04-27T03:12:08;101836.69;;;1.70;100.00
64933;BME280;51446;53.850;10.662;2023-04-27T03:14:33;101836.69;;;1.70;100.00
64933;BME280;51446;53.850;10.662;2023-04-27T03:16:59;101835.81;;;1.69;100.00
64933;BME280;51446;53.850;10.662;2023-04-27T03:19:24;101835.50;;;1.65;100.00
64933;BME280;51446;53.850;10.662;2023-04-27T03:21:49;101841.94;;;1.83;100.00
64933;BME280;51446;53.850;10.662;2023-04-27T03:24:15;101840.75;;;1.66;100.00
64933;BME280;51446;53.850;10.662;2023-04-27T03:26:41;101835.31;;;1.75;100.00
64933;BME280;51446;53.850;10.662;2023-04-27T03:29:06;101844.22;;;1.79;100.00
64933;BME280;51446;53.850;10.662;2023-04-27T03:31:32;101844.88;;;1.76;100.00
64933;BME280;51446;53.850;10.662;2023-04-27T03:33:57;101842.56;;;1.67;100.00
64933;BME280;51446;53.850;10.662;2023-04-27T03:36:22;101845.31;;;1.57;100.00
64933;BME280;51446;53.850;10.662;2023-04-27T03:38:47;101837.56;;;1.57;100.00
64933;BME280;51446;53.850;10.662;2023-04-27T03:41:13;101840.44;;;1.62;100.00
64933;BME280;51446;53.850;10.662;2023-04-27T03:43:38;101848.84;;;1.71;100.00
64933;BME280;51446;53.850;10.662;2023-04-27T03:46:03;101831.78;;;1.61;100.00
64933;BME280;51446;53.850;10.662;2023-04-27T03:48:28;101850.13;;;1.64;100.00
64933;BME280;51446;53.850;10.662;2023-04-27T03:50:54;101857.63;;;1.61;100.00
64933;BME280;51446;53.850;10.662;2023-04-27T03:53:19;101851.31;;;1.69;100.00
64933;BME280;51446;53.850;10.662;2023-04-27T03:55:44;101865.03;;;1.68;100.00
64933;BME280;51446;53.850;10.662;2023-04-27T03:58:10;101858.75;;;1.65;100.00
64933;BME280;51446;53.850;10.662;2023-04-27T04:00:36;101857.50;;;1.71;100.00
64933;BME280;51446;53.850;10.662;2023-04-27T04:03:02;101853.53;;;1.77;100.00
64933;BME280;51446;53.850;10.662;2023-04-27T04:05:27;101852.75;;;1.78;100.00
64933;BME280;51446;53.850;10.662;2023-04-27T04:07:54;101844.88;;;1.76;100.00
64933;BME280;51446;53.850;10.662;2023-04-27T04:10:19;101859.81;;;1.80;100.00
64933;BME280;51446;53.850;10.662;2023-04-27T04:12:45;101861.28;;;2.02;100.00
64933;BME280;51446;53.850;10.662;2023-04-27T04:15:10;101862.31;;;1.79;100.00
64933;BME280;51446;53.850;10.662;2023-04-27T04:17:35;101858.97;;;1.68;100.00
64933;BME280;51446;53.850;10.662;2023-04-27T04:20:00;101864.44;;;1.72;100.00
64933;BME280;51446;53.850;10.662;2023-04-27T04:22:26;101868.56;;;1.82;100.00
64933;BME280;51446;53.850;10.662;2023-04-27T04:24:51;101865.63;;;2.15;100.00
64933;BME280;51446;53.850;10.662;2023-04-27T04:27:17;101856.31;;;2.05;100.00
64933;BME280;51446;53.850;10.662;2023-04-27T04:29:42;101869.16;;;2.03;100.00
64933;BME280;51446;53.850;10.662;2023-04-27T04:32:07;101871.16;;;2.07;100.00
64933;BME280;51446;53.850;10.662;2023-04-27T04:34:34;101870.34;;;2.08;100.00
64933;BME280;51446;53.850;10.662;2023-04-27T04:36:59;101874.84;;;2.11;100.00
64933;BME280;51446;53.850;10.662;2023-04-27T04:39:29;101871.09;;;2.19;100.00
64933;BME280;51446;53.850;10.662;2023-04-27T04:41:55;101875.13;;;2.41;100.00
64933;BME280;51446;53.850;10.662;2023-04-27T04:44:20;101873.44;;;2.55;100.00
64933;BME280;51446;53.850;10.662;2023-04-27T04:46:45;101875.22;;;2.69;100.00
64933;BME280;51446;53.850;10.662;2023-04-27T04:49:11;101874.63;;;3.13;100.00
64933;BME280;51446;53.850;10.662;2023-04-27T04:51:40;101878.09;;;3.27;100.00
64933;BME280;51446;53.850;10.662;2023-04-27T04:54:06;101873.16;;;3.45;100.00
64933;BME280;51446;53.850;10.662;2023-04-27T04:56:31;101876.16;;;3.38;100.00
64933;BME280;51446;53.850;10.662;2023-04-27T04:58:56;101876.66;;;3.46;100.00
64933;BME280;51446;53.850;10.662;2023-04-27T05:01:21;101875.00;;;3.33;100.00
64933;BME280;51446;53.850;10.662;2023-04-27T05:03:47;101875.78;;;3.32;100.00
64933;BME280;51446;53.850;10.662;2023-04-27T05:06:12;101880.78;;;3.29;100.00
64933;BME280;51446;53.850;10.662;2023-04-27T05:08:37;101879.59;;;3.24;100.00
64933;BME280;51446;53.850;10.662;2023-04-27T05:11:03;101887.69;;;3.02;100.00
64933;BME280;51446;53.850;10.662;2023-04-27T05:13:28;101885.31;;;3.46;100.00
64933;BME280;51446;53.850;10.662;2023-04-27T05:15:53;101873.25;;;3.47;100.00
64933;BME280;51446;53.850;10.662;2023-04-27T05:18:19;101872.31;;;3.60;100.00
64933;BME280;51446;53.850;10.662;2023-04-27T05:20:44;101882.13;;;3.51;100.00
64933;BME280;51446;53.850;10.662;2023-04-27T05:23:09;101885.19;;;3.58;100.00
64933;BME280;51446;53.850;10.662;2023-04-27T05:25:35;101876.81;;;3.62;100.00
64933;BME280;51446;53.850;10.662;2023-04-27T05:28:08;101883.56;;;3.74;100.00
64933;BME280;51446;53.850;10.662;2023-04-27T05:30:34;101882.75;;;3.75;100.00
64933;BME280;51446;53.850;10.662;2023-04-27T05:32:59;101894.44;;;3.68;100.00
64933;BME280;51446;53.850;10.662;2023-04-27T05:35:25;101885.66;;;3.94;100.00
64933;BME280;51446;53.850;10.662;2023-04-27T05:37:50;101889.66;;;4.47;100.00
64933;BME280;51446;53.850;10.662;2023-04-27T05:40:16;101885.94;;;5.03;100.00
64933;BME280;51446;53.850;10.662;2023-04-27T05:42:41;101881.16;;;5.11;100.00
64933;BME280;51446;53.850;10.662;2023-04-27T05:45:07;101882.06;;;5.60;100.00
64933;BME280;51446;53.850;10.662;2023-04-27T05:47:32;101883.06;;;6.11;100.00
64933;BME280;51446;53.850;10.662;2023-04-27T05:49:57;101884.88;;;7.19;100.00
64933;BME280;51446;53.850;10.662;2023-04-27T05:52:23;101878.59;;;7.90;100.00
64933;BME280;51446;53.850;10.662;2023-04-27T05:54:53;101890.28;;;7.59;100.00
64933;BME280;51446;53.850;10.662;2023-04-27T05:57:19;101885.47;;;7.69;100.00
64933;BME280;51446;53.850;10.662;2023-04-27T05:59:44;101889.31;;;7.02;100.00
64933;BME280;51446;53.850;10.662;2023-04-27T06:02:09;101890.75;;;6.42;100.00
64933;BME280;51446;53.850;10.662;2023-04-27T06:04:34;101885.72;;;5.96;100.00
64933;BME280;51446;53.850;10.662;2023-04-27T06:07:01;101890.03;;;6.12;100.00
64933;BME280;51446;53.850;10.662;2023-04-27T06:09:29;101890.03;;;5.96;100.00
64933;BME280;51446;53.850;10.662;2023-04-27T06:11:54;101894.25;;;6.27;100.00
64933;BME280;51446;53.850;10.662;2023-04-27T06:14:22;101884.44;;;7.27;100.00
64933;BME280;51446;53.850;10.662;2023-04-27T06:16:47;101890.56;;;6.92;100.00
64933;BME280;51446;53.850;10.662;2023-04-27T06:19:12;101888.72;;;8.23;100.00
64933;BME280;51446;53.850;10.662;2023-04-27T06:21:38;101887.94;;;9.31;100.00
64933;BME280;51446;53.850;10.662;2023-04-27T06:24:03;101882.22;;;9.42;100.00
64933;BME280;51446;53.850;10.662;2023-04-27T06:26:28;101885.47;;;10.05;98.50
64933;BME280;51446;53.850;10.662;2023-04-27T06:28:54;101895.53;;;9.70;97.38
64933;BME280;51446;53.850;10.662;2023-04-27T06:31:20;101899.91;;;9.47;94.55
64933;BME280;51446;53.850;10.662;2023-04-27T06:33:45;101898.56;;;9.81;92.73
64933;BME280;51446;53.850;10.662;2023-04-27T06:36:10;101891.59;;;10.30;86.43
64933;BME280;51446;53.850;10.662;2023-04-27T06:38:36;101889.44;;;11.53;78.90
64933;BME280;51446;53.850;10.662;2023-04-27T06:41:01;101885.25;;;11.90;76.19
64933;BME280;51446;53.850;10.662;2023-04-27T06:43:27;101887.75;;;11.55;76.13
64933;BME280;51446;53.850;10.662;2023-04-27T06:45:52;101884.13;;;11.52;71.46
64933;BME280;51446;53.850;10.662;2023-04-27T06:48:18;101885.50;;;10.83;72.69
64933;BME280;51446;53.850;10.662;2023-04-27T06:50:43;101885.97;;;11.85;71.43
64933;BME280;51446;53.850;10.662;2023-04-27T06:53:08;101890.00;;;11.73;70.51
64933;BME280;51446;53.850;10.662;2023-04-27T06:55:34;101886.25;;;13.74;60.75
64933;BME280;51446;53.850;10.662;2023-04-27T06:58:00;101877.47;;;12.60;60.95
64933;BME280;51446;53.850;10.662;2023-04-27T07:00:25;101878.78;;;12.43;66.38
64933;BME280;51446;53.850;10.662;2023-04-27T07:02:51;101881.53;;;11.53;71.64
64933;BME280;51446;53.850;10.662;2023-04-27T07:05:17;101887.88;;;10.49;74.13
64933;BME280;51446;53.850;10.662;2023-04-27T07:07:42;101885.50;;;9.36;90.41
64933;BME280;51446;53.850;10.662;2023-04-27T07:10:08;101898.06;;;10.93;79.22
64933;BME280;51446;53.850;10.662;2023-04-27T07:12:33;101893.41;;;10.84;72.01
64933;BME280;51446;53.850;10.662;2023-04-27T07:14:58;101895.38;;;11.19;70.73
64933;BME280;51446;53.850;10.662;2023-04-27T07:17:23;101896.22;;;10.63;75.39
64933;BME280;51446;53.850;10.662;2023-04-27T07:19:49;101897.22;;;11.80;68.22
64933;BME280;51446;53.850;10.662;2023-04-27T07:22:14;101889.09;;;12.34;63.86
64933;BME280;51446;53.850;10.662;2023-04-27T07:24:40;101897.75;;;11.38;67.38
64933;BME280;51446;53.850;10.662;2023-04-27T07:27:06;101904.31;;;12.13;65.07
64933;BME280;51446;53.850;10.662;2023-04-27T07:29:32;101903.50;;;14.48;55.58
64933;BME280;51446;53.850;10.662;2023-04-27T07:31:57;101903.44;;;13.97;55.75
64933;BME280;51446;53.850;10.662;2023-04-27T07:34:23;101914.50;;;11.72;59.39
64933;BME280;51446;53.850;10.662;2023-04-27T07:36:48;101916.44;;;11.49;64.75
64933;BME280;51446;53.850;10.662;2023-04-27T07:39:13;101921.59;;;10.38;69.37
64933;BME280;51446;53.850;10.662;2023-04-27T07:41:38;101918.06;;;11.44;61.89
64933;BME280;51446;53.850;10.662;2023-04-27T07:44:04;101913.19;;;13.59;55.79
64933;BME280;51446;53.850;10.662;2023-04-27T07:46:29;101913.97;;;14.94;50.22
64933;BME280;51446;53.850;10.662;2023-04-27T07:48:55;101917.97;;;13.02;53.59
64933;BME280;51446;53.850;10.662;2023-04-27T07:51:23;101922.50;;;12.04;55.21
64933;BME280;51446;53.850;10.662;2023-04-27T07:53:49;101928.22;;;11.06;58.61
64933;BME280;51446;53.850;10.662;2023-04-27T07:56:14;101916.13;;;11.96;55.36
64933;BME280;51446;53.850;10.662;2023-04-27T07:58:39;101921.09;;;12.86;52.29
64933;BME280;51446;53.850;10.662;2023-04-27T08:01:05;101929.56;;;10.67;57.80
64933;BME280;51446;53.850;10.662;2023-04-27T08:03:30;101929.72;;;10.98;59.60
64933;BME280;51446;53.850;10.662;2023-04-27T08:05:55;101932.09;;;9.22;65.42
64933;BME280;51446;53.850;10.662;2023-04-27T08:08:21;101928.94;;;12.17;63.29
64933;BME280;51446;53.850;10.662;2023-04-27T08:10:46;101921.41;;;13.34;54.54
64933;BME280;51446;53.850;10.662;2023-04-27T08:13:12;101922.97;;;14.56;49.61
64933;BME280;51446;53.850;10.662;2023-04-27T08:15:37;101925.13;;;13.08;50.89
64933;BME280;51446;53.850;10.662;2023-04-27T08:18:02;101925.06;;;11.45;56.97
64933;BME280;51446;53.850;10.662;2023-04-27T08:20:28;101903.31;;;10.93;57.79
64933;BME280;51446;53.850;10.662;2023-04-27T08:22:53;101925.91;;;10.36;61.32
64933;BME280;51446;53.850;10.662;2023-04-27T08:25:18;101926.44;;;10.52;59.31
64933;BME280;51446;53.850;10.662;2023-04-27T08:27:43;101929.78;;;10.23;61.88
64933;BME280;51446;53.850;10.662;2023-04-27T08:30:09;101928.75;;;9.49;63.32
64933;BME280;51446;53.850;10.662;2023-04-27T08:32:35;101924.22;;;9.45;66.01
64933;BME280;51446;53.850;10.662;2023-04-27T08:35:00;101926.50;;;11.34;63.36
64933;BME280;51446;53.850;10.662;2023-04-27T08:37:26;101918.31;;;12.46;53.42
64933;BME280;51446;53.850;10.662;2023-04-27T08:39:51;101904.53;;;14.57;47.13
64933;BME280;51446;53.850;10.662;2023-04-27T08:42:16;101911.28;;;12.43;52.94
64933;BME280;51446;53.850;10.662;2023-04-27T08:44:43;101907.88;;;11.85;54.42
64933;BME280;51446;53.850;10.662;2023-04-27T08:47:09;101923.81;;;10.52;56.66
64933;BME280;51446;53.850;10.662;2023-04-27T08:49:35;101918.97;;;11.17;58.70
64933;BME280;51446;53.850;10.662;2023-04-27T08:52:03;101910.56;;;12.86;52.11
64933;BME280;51446;53.850;10.662;2023-04-27T08:54:28;101904.25;;;14.91;48.02
64933;BME280;51446;53.850;10.662;2023-04-27T08:56:54;101885.53;;;14.28;45.78
64933;BME280;51446;53.850;10.662;2023-04-27T08:59:20;101897.75;;;14.70;43.59
64933;BME280;51446;53.850;10.662;2023-04-27T09:01:46;101891.28;;;15.71;39.72
64933;BME280;51446;53.850;10.662;2023-04-27T09:04:15;101887.78;;;14.55;42.66
64933;BME280;51446;53.850;10.662;2023-04-27T09:06:41;101887.53;;;13.13;44.01
64933;BME280;51446;53.850;10.662;2023-04-27T09:09:06;101894.72;;;14.03;44.17
64933;BME280;51446;53.850;10.662;2023-04-27T09:11:34;101887.84;;;12.89;46.75
64933;BME280;51446;53.850;10.662;2023-04-27T09:14:02;101899.44;;;12.27;47.12
64933;BME280;51446;53.850;10.662;2023-04-27T09:16:29;101901.56;;;10.16;51.79
64933;BME280;51446;53.850;10.662;2023-04-27T09:18:57;101899.81;;;9.91;53.87
64933;BME280;51446;53.850;10.662;2023-04-27T09:21:29;101900.50;;;9.63;57.75
64933;BME280;51446;53.850;10.662;2023-04-27T09:23:55;101904.50;;;10.00;59.40
64933;BME280;51446;53.850;10.662;2023-04-27T09:26:23;101898.13;;;10.17;60.66
64933;BME280;51446;53.850;10.662;2023-04-27T09:28:54;101903.81;;;9.81;63.39
64933;BME280;51446;53.850;10.662;2023-04-27T09:31:32;101894.78;;;12.51;58.25
64933;BME280;51446;53.850;10.662;2023-04-27T09:33:58;101893.47;;;13.41;51.52
64933;BME280;51446;53.850;10.662;2023-04-27T09:36:24;101888.25;;;13.87;48.31
64933;BME280;51446;53.850;10.662;2023-04-27T09:38:51;101889.03;;;14.76;47.97
64933;BME280;51446;53.850;10.662;2023-04-27T09:41:17;101878.09;;;14.54;47.46
64933;BME280;51446;53.850;10.662;2023-04-27T09:43:43;101880.56;;;14.96;44.40
64933;BME280;51446;53.850;10.662;2023-04-27T09:46:11;101865.59;;;16.40;42.36
64933;BME280;51446;53.850;10.662;2023-04-27T09:48:37;101859.91;;;16.00;41.84
64933;BME280;51446;53.850;10.662;2023-04-27T09:51:03;101865.22;;;16.97;39.64
64933;BME280;51446;53.850;10.662;2023-04-27T09:53:35;101865.81;;;16.65;38.74
64933;BME280;51446;53.850;10.662;2023-04-27T09:59:27;101865.66;;;12.78;45.37
64933;BME280;51446;53.850;10.662;2023-04-27T10:01:59;101879.31;;;11.37;49.79
64933;BME280;51446;53.850;10.662;2023-04-27T10:07:11;101874.16;;;15.42;43.17
64933;BME280;51446;53.850;10.662;2023-04-27T10:09:48;101880.41;;;15.48;39.04
64933;BME280;51446;53.850;10.662;2023-04-27T10:12:19;101876.59;;;12.96;40.88
64933;BME280;51446;53.850;10.662;2023-04-27T10:14:55;101886.75;;;11.52;44.95
64933;BME280;51446;53.850;10.662;2023-04-27T10:17:28;101880.25;;;11.39;44.50
64933;BME280;51446;53.850;10.662;2023-04-27T10:20:03;101893.13;;;11.90;43.60
64933;BME280;51446;53.850;10.662;2023-04-27T10:22:46;101889.88;;;11.69;45.82
64933;BME280;51446;53.850;10.662;2023-04-27T10:25:22;101893.81;;;10.97;47.32
64933;BME280;51446;53.850;10.662;2023-04-27T10:27:49;101887.16;;;10.53;48.75
64933;BME280;51446;53.850;10.662;2023-04-27T10:30:17;101892.03;;;10.96;48.39
64933;BME280;51446;53.850;10.662;2023-04-27T10:32:59;101886.97;;;11.59;50.94
64933;BME280;51446;53.850;10.662;2023-04-27T10:35:37;101886.69;;;10.92;47.96
64933;BME280;51446;53.850;10.662;2023-04-27T10:40:33;101891.22;;;11.25;50.04
64933;BME280;51446;53.850;10.662;2023-04-27T10:43:08;101888.56;;;11.53;48.10
64933;BME280;51446;53.850;10.662;2023-04-27T10:45:34;101896.59;;;11.01;49.37
64933;BME280;51446;53.850;10.662;2023-04-27T10:48:00;101894.47;;;10.89;48.99
64933;BME280;51446;53.850;10.662;2023-04-27T10:50:26;101901.34;;;10.60;49.58
64933;BME280;51446;53.850;10.662;2023-04-27T10:52:52;101899.97;;;10.71;50.03
64933;BME280;51446;53.850;10.662;2023-04-27T10:55:19;101891.75;;;10.86;49.12
64933;BME280;51446;53.850;10.662;2023-04-27T10:57:49;101904.50;;;10.75;50.07
64933;BME280;51446;53.850;10.662;2023-04-27T11:00:26;101899.44;;;10.54;49.05
64933;BME280;51446;53.850;10.662;2023-04-27T11:02:54;101897.63;;;10.79;50.33
64933;BME280;51446;53.850;10.662;2023-04-27T11:05:25;101903.03;;;10.58;51.46
64933;BME280;51446;53.850;10.662;2023-04-27T11:08:06;101907.59;;;10.64;52.70
64933;BME280;51446;53.850;10.662;2023-04-27T11:10:32;101900.00;;;10.46;51.79
64933;BME280;51446;53.850;10.662;2023-04-27T11:12:58;101905.41;;;10.50;52.01
64933;BME280;51446;53.850;10.662;2023-04-27T11:15:23;101902.63;;;9.97;51.13
64933;BME280;51446;53.850;10.662;2023-04-27T11:17:48;101909.94;;;9.82;52.12
64933;BME280;51446;53.850;10.662;2023-04-27T11:20:23;101909.44;;;9.92;52.73
64933;BME280;51446;53.850;10.662;2023-04-27T11:22:48;101908.63;;;10.41;52.81
64933;BME280;51446;53.850;10.662;2023-04-27T11:25:14;101911.44;;;10.48;51.91
64933;BME280;51446;53.850;10.662;2023-04-27T11:27:40;101911.41;;;11.26;51.23
64933;BME280;51446;53.850;10.662;2023-04-27T11:30:17;101903.84;;;10.83;50.21
64933;BME280;51446;53.850;10.662;2023-04-27T11:32:43;101911.78;;;10.58;51.70
64933;BME280;51446;53.850;10.662;2023-04-27T11:35:08;101920.47;;;10.07;53.80
64933;BME280;51446;53.850;10.662;2023-04-27T11:37:34;101912.81;;;9.89;54.22
64933;BME280;51446;53.850;10.662;2023-04-27T11:39:59;101915.38;;;9.88;56.56
64933;BME280;51446;53.850;10.662;2023-04-27T11:42:27;101921.81;;;9.96;55.73
64933;BME280;51446;53.850;10.662;2023-04-27T11:44:53;101921.78;;;9.72;55.03
64933;BME280;51446;53.850;10.662;2023-04-27T11:47:19;101918.00;;;9.64;57.46
64933;BME280;51446;53.850;10.662;2023-04-27T11:49:48;101918.47;;;10.00;55.80
64933;BME280;51446;53.850;10.662;2023-04-27T11:52:13;101926.38;;;10.26;57.46
64933;BME280;51446;53.850;10.662;2023-04-27T11:54:46;101926.41;;;11.32;55.31
64933;BME280;51446;53.850;10.662;2023-04-27T11:57:11;101913.63;;;13.02;49.72
64933;BME280;51446;53.850;10.662;2023-04-27T11:59:37;101923.00;;;12.24;49.30
64933;BME280;51446;53.850;10.662;2023-04-27T12:02:02;101925.47;;;12.18;48.40
64933;BME280;51446;53.850;10.662;2023-04-27T12:04:28;101923.59;;;11.84;50.84
64933;BME280;51446;53.850;10.662;2023-04-27T12:06:53;101924.03;;;12.29;50.21
64933;BME280;51446;53.850;10.662;2023-04-27T12:09:18;101935.06;;;11.28;53.80
64933;BME280;51446;53.850;10.662;2023-04-27T12:11:43;101933.41;;;11.32;56.84
64933;BME280;51446;53.850;10.662;2023-04-27T12:14:09;101937.44;;;11.78;54.78
64933;BME280;51446;53.850;10.662;2023-04-27T12:16:34;101944.25;;;12.30;54.56
64933;BME280;51446;53.850;10.662;2023-04-27T12:18:59;101940.13;;;11.51;57.12
64933;BME280;51446;53.850;10.662;2023-04-27T12:21:25;101945.47;;;11.54;52.40
64933;BME280;51446;53.850;10.662;2023-04-27T12:23:50;101940.19;;;11.25;53.67
64933;BME280;51446;53.850;10.662;2023-04-27T12:26:16;101945.03;;;11.67;54.77
64933;BME280;51446;53.850;10.662;2023-04-27T12:28:42;101941.25;;;11.88;54.85
64933;BME280;51446;53.850;10.662;2023-04-27T12:31:07;101940.75;;;11.42;55.38
64933;BME280;51446;53.850;10.662;2023-04-27T12:33:33;101947.91;;;11.48;60.09
64933;BME280;51446;53.850;10.662;2023-04-27T12:35:58;101949.00;;;11.54;54.95
64933;BME280;51446;53.850;10.662;2023-04-27T12:38:23;101952.22;;;11.17;54.66
64933;BME280;51446;53.850;10.662;2023-04-27T12:40:48;101949.53;;;10.62;58.87
64933;BME280;51446;53.850;10.662;2023-04-27T12:43:14;101951.41;;;10.92;56.42
64933;BME280;51446;53.850;10.662;2023-04-27T12:45:39;101957.75;;;10.99;58.60
64933;BME280;51446;53.850;10.662;2023-04-27T12:48:05;101954.91;;;10.41;59.07